Fisher Island, FL

3:04 PM EDT on June 03, 2015 (GMT -0400)
DV Floral Group | | Change Station
CLOSE
Current Station
Personal Weather Station
Location: Miami, FL
Elevation: 26 ft
Nearby Weather Stations

Elev 26 ft 25.79 °N, 80.35 °W | Updated 2 seconds ago

Light Rain
Light Rain
77.7 °F
Feels Like 80 °F
N
3.0
Wind Variable Wind from ENE
Gusts 7.0 mph

Today
High -- | Low -- °F
--% Chance of Precip.
Yesterday
High -- | Low -- °F
Precip. -- in
6:29 AM 8:09 PM
Full, 99% visible
Pressure 29.93 in
Visibility 6.0 miles
Clouds Scattered Clouds 3600 ft
Mostly Cloudy 4700 ft
Overcast 30000 ft
Heat Index 80 °F
Dew Point 76 °F
Humidity 94%
Rainfall 0.15 in
Snow Depth Not available.
UV 4 out of 12
Pollen .50 out of 12
Air Quality Not available.
Flu Activity Sporadic
METAR KMIA 031853Z 09008KT 6SM -RA SCT036CB BKN047 OVC300 26/23 A2992 RMK AO2 SLP133 CB N-NW MOV E P0009 T02560228

More Conditions Fewer Conditions

Pressure 29.93 in
Visibility 6.0 miles
Clouds Scattered Clouds 3600 ft
Mostly Cloudy 4700 ft
Overcast 30000 ft
Heat Index 80 °F
Dew Point 76 °F
Humidity 94%
Rainfall 0.15 in
Snow Depth Not available.
UV 4 out of 12
Pollen .50 out of 12
Air Quality Not available.
Flu Activity Sporadic
METAR KMIA 031853Z 09008KT 6SM -RA SCT036CB BKN047 OVC300 26/23 A2992 RMK AO2 SLP133 CB N-NW MOV E P0009 T02560228

More Conditions Fewer Conditions

Nowcast | as of 2:53 PM EDT on June 3, 2015

Scattered showers and an isolated thunderstorm or two will continue across parts of South Florida through the late afternoon. Areas most likely to be affected by the rain will be south of a Everglades City to West Palm Beach line, including most of the Southeast Florida Metro area. As the afternoon progresses, the showers and thunderstorms will gradually shift to the west and affect more of Collier County. Over the Atlantic, more widespread rain and scattered thunderstorms will occur mainly over the waters off of southern Miami-Dade County stretching all way to the western Bahamas. Mariners in these areas can expect locally gusty winds and rough seas.

×

10-Day Weather Forecast

×

Almanac

Astronomy

Jun. 03, 2015 Rise Set
Actual Time
Civil Twilight
Nautical Twilight
Astronomical Twilight
Moon
Length of Visible Light
Length of Day
Tomorrow will be .
, % of the Moon is Illuminated

Today's Extremes

State Highs State Lows

Community

WunderPhotos

Upload Photos

1,826,270 photos uploaded!

WunderBlogs® & News

Nearby

Air Quality

  Air Quality AQ Index Pollutant
Not available.

Snow Depth

Station Depth Elevation

Earthquake Activity

City Distance Mag. Time & Date
Minimum magnitude displayed is 2.5.

Coastal Water Temperatures

Place Temperature

Stations

Nearby Weather Stations

Station Location Temp. Windchill Dew Point Humidity Wind Precip. Elev Updated Type